Current Weather

Buckeye Muni

Buckeye, Arizona (KBXK)

Report from: Sunday, June 26, 2022 10:35 AM MST
Current time: Sunday, June 26, 2022 10:57 AM MST

Nearby weather
Weather history
Weather forecast

Temperature36.0°C (96.8°F)
Heat index35.5°C (95.8°F)
Dew point14.0°C (57.2°F)
Winds 6 kts (3.1 m/s, 6.9 mph) East-Southeast (120°)
Visibility10 mi. (16.1 km)
Altimeter30.00 in.Hg (1016 mB)
Relative humidity27 %
Density altitude2,513 ft. (766 m)
Remarks Fully automated report
Flight conditions Visual Meteorological Conditions
Raw dataKBXK 261735Z AUTO 12006KT 10SM 36/14 A3000 RMK A01
An error has occurred. This application may no longer respond until reloaded. Reload 🗙